sensor_id;sensor_type;location;lat;lon;timestamp;P1;durP1;ratioP1;P2;durP2;ratioP2
14060;SDS011;7105;43.616;1.434;2022-12-18T00:02:15;23.53;;;17.33;;
14060;SDS011;7105;43.616;1.434;2022-12-18T00:04:41;22.63;;;17.40;;
14060;SDS011;7105;43.616;1.434;2022-12-18T00:07:06;26.20;;;18.37;;
14060;SDS011;7105;43.616;1.434;2022-12-18T00:09:32;20.70;;;14.70;;
14060;SDS011;7105;43.616;1.434;2022-12-18T00:11:58;21.10;;;14.90;;
14060;SDS011;7105;43.616;1.434;2022-12-18T00:14:23;18.10;;;13.13;;
14060;SDS011;7105;43.616;1.434;2022-12-18T00:16:49;18.33;;;13.37;;
14060;SDS011;7105;43.616;1.434;2022-12-18T00:19:15;17.00;;;12.70;;
14060;SDS011;7105;43.616;1.434;2022-12-18T00:21:41;16.47;;;12.47;;
14060;SDS011;7105;43.616;1.434;2022-12-18T00:24:07;15.63;;;12.63;;
14060;SDS011;7105;43.616;1.434;2022-12-18T00:26:34;16.17;;;12.30;;
14060;SDS011;7105;43.616;1.434;2022-12-18T00:29:03;19.20;;;13.07;;
14060;SDS011;7105;43.616;1.434;2022-12-18T00:31:31;19.20;;;12.97;;
14060;SDS011;7105;43.616;1.434;2022-12-18T00:33:58;16.07;;;12.00;;
14060;SDS011;7105;43.616;1.434;2022-12-18T00:36:28;17.73;;;12.27;;
14060;SDS011;7105;43.616;1.434;2022-12-18T00:38:56;15.10;;;11.27;;
14060;SDS011;7105;43.616;1.434;2022-12-18T00:41:23;15.43;;;11.83;;
14060;SDS011;7105;43.616;1.434;2022-12-18T00:44:09;17.13;;;12.03;;
14060;SDS011;7105;43.616;1.434;2022-12-18T00:46:36;15.67;;;11.97;;
14060;SDS011;7105;43.616;1.434;2022-12-18T00:49:02;17.60;;;12.20;;
14060;SDS011;7105;43.616;1.434;2022-12-18T00:51:28;12.90;;;10.83;;
14060;SDS011;7105;43.616;1.434;2022-12-18T00:53:54;15.93;;;11.77;;
14060;SDS011;7105;43.616;1.434;2022-12-18T00:56:19;16.00;;;11.97;;
14060;SDS011;7105;43.616;1.434;2022-12-18T00:58:47;16.23;;;11.70;;
14060;SDS011;7105;43.616;1.434;2022-12-18T01:01:13;15.93;;;11.83;;
14060;SDS011;7105;43.616;1.434;2022-12-18T01:03:38;14.90;;;11.30;;
14060;SDS011;7105;43.616;1.434;2022-12-18T01:06:08;17.67;;;11.30;;
14060;SDS011;7105;43.616;1.434;2022-12-18T01:08:35;17.57;;;12.23;;
14060;SDS011;7105;43.616;1.434;2022-12-18T01:11:06;15.80;;;11.67;;
14060;SDS011;7105;43.616;1.434;2022-12-18T01:13:33;17.07;;;11.47;;
14060;SDS011;7105;43.616;1.434;2022-12-18T01:15:59;19.30;;;12.57;;
14060;SDS011;7105;43.616;1.434;2022-12-18T01:18:24;20.70;;;14.00;;
14060;SDS011;7105;43.616;1.434;2022-12-18T01:20:50;16.83;;;11.83;;
14060;SDS011;7105;43.616;1.434;2022-12-18T01:23:15;16.90;;;12.30;;
14060;SDS011;7105;43.616;1.434;2022-12-18T01:25:41;19.77;;;12.20;;
14060;SDS011;7105;43.616;1.434;2022-12-18T01:28:07;22.50;;;12.73;;
14060;SDS011;7105;43.616;1.434;2022-12-18T01:30:32;21.70;;;13.23;;
14060;SDS011;7105;43.616;1.434;2022-12-18T01:32:58;22.97;;;13.73;;
14060;SDS011;7105;43.616;1.434;2022-12-18T01:35:24;20.03;;;12.90;;
14060;SDS011;7105;43.616;1.434;2022-12-18T01:37:53;20.13;;;13.50;;
14060;SDS011;7105;43.616;1.434;2022-12-18T01:40:20;17.80;;;12.97;;
14060;SDS011;7105;43.616;1.434;2022-12-18T01:42:49;20.17;;;12.97;;
14060;SDS011;7105;43.616;1.434;2022-12-18T01:47:55;20.17;;;13.90;;
14060;SDS011;7105;43.616;1.434;2022-12-18T01:52:56;19.20;;;13.70;;
14060;SDS011;7105;43.616;1.434;2022-12-18T01:55:26;19.30;;;13.70;;
14060;SDS011;7105;43.616;1.434;2022-12-18T01:57:56;18.17;;;12.60;;
14060;SDS011;7105;43.616;1.434;2022-12-18T02:00:24;19.07;;;13.50;;
14060;SDS011;7105;43.616;1.434;2022-12-18T02:02:51;22.53;;;14.57;;
14060;SDS011;7105;43.616;1.434;2022-12-18T02:05:19;19.13;;;13.87;;
14060;SDS011;7105;43.616;1.434;2022-12-18T02:10:44;19.67;;;13.07;;
14060;SDS011;7105;43.616;1.434;2022-12-18T02:13:35;17.33;;;12.23;;
14060;SDS011;7105;43.616;1.434;2022-12-18T02:18:47;16.97;;;12.20;;
14060;SDS011;7105;43.616;1.434;2022-12-18T02:24:24;19.80;;;12.87;;
14060;SDS011;7105;43.616;1.434;2022-12-18T02:27:07;16.67;;;12.33;;
14060;SDS011;7105;43.616;1.434;2022-12-18T02:29:43;19.20;;;13.10;;
14060;SDS011;7105;43.616;1.434;2022-12-18T02:32:17;19.20;;;12.57;;
14060;SDS011;7105;43.616;1.434;2022-12-18T02:34:47;18.70;;;13.53;;
14060;SDS011;7105;43.616;1.434;2022-12-18T02:37:16;19.13;;;13.70;;
14060;SDS011;7105;43.616;1.434;2022-12-18T02:39:43;20.97;;;14.23;;
14060;SDS011;7105;43.616;1.434;2022-12-18T02:42:12;17.50;;;13.33;;
14060;SDS011;7105;43.616;1.434;2022-12-18T02:44:45;21.30;;;13.73;;
14060;SDS011;7105;43.616;1.434;2022-12-18T02:47:13;20.83;;;13.80;;
14060;SDS011;7105;43.616;1.434;2022-12-18T02:52:37;18.50;;;13.50;;
14060;SDS011;7105;43.616;1.434;2022-12-18T03:01:00;18.37;;;13.43;;
14060;SDS011;7105;43.616;1.434;2022-12-18T03:03:39;19.77;;;13.47;;
14060;SDS011;7105;43.616;1.434;2022-12-18T03:06:26;20.93;;;14.03;;
14060;SDS011;7105;43.616;1.434;2022-12-18T03:08:58;19.87;;;13.03;;
14060;SDS011;7105;43.616;1.434;2022-12-18T03:11:28;19.43;;;12.83;;
14060;SDS011;7105;43.616;1.434;2022-12-18T03:14:16;16.57;;;12.13;;
14060;SDS011;7105;43.616;1.434;2022-12-18T03:16:46;20.00;;;12.40;;
14060;SDS011;7105;43.616;1.434;2022-12-18T03:19:16;19.20;;;14.23;;
14060;SDS011;7105;43.616;1.434;2022-12-18T03:21:46;18.43;;;12.63;;
14060;SDS011;7105;43.616;1.434;2022-12-18T03:24:15;18.53;;;11.87;;
14060;SDS011;7105;43.616;1.434;2022-12-18T03:26:43;18.30;;;11.67;;
14060;SDS011;7105;43.616;1.434;2022-12-18T03:29:33;18.23;;;12.60;;
14060;SDS011;7105;43.616;1.434;2022-12-18T03:32:05;18.53;;;11.50;;
14060;SDS011;7105;43.616;1.434;2022-12-18T03:34:35;18.97;;;12.87;;
14060;SDS011;7105;43.616;1.434;2022-12-18T03:37:04;18.87;;;12.53;;
14060;SDS011;7105;43.616;1.434;2022-12-18T03:39:30;20.93;;;13.67;;
14060;SDS011;7105;43.616;1.434;2022-12-18T03:42:15;21.43;;;13.00;;
14060;SDS011;7105;43.616;1.434;2022-12-18T03:53:33;16.07;;;10.80;;
14060;SDS011;7105;43.616;1.434;2022-12-18T03:56:09;14.77;;;9.70;;
14060;SDS011;7105;43.616;1.434;2022-12-18T03:58:35;15.10;;;10.87;;
14060;SDS011;7105;43.616;1.434;2022-12-18T04:01:04;17.03;;;10.60;;
14060;SDS011;7105;43.616;1.434;2022-12-18T04:03:33;17.93;;;10.53;;
14060;SDS011;7105;43.616;1.434;2022-12-18T04:06:00;14.70;;;9.67;;
14060;SDS011;7105;43.616;1.434;2022-12-18T04:08:27;17.87;;;11.03;;
14060;SDS011;7105;43.616;1.434;2022-12-18T04:10:54;15.83;;;10.77;;
14060;SDS011;7105;43.616;1.434;2022-12-18T04:13:29;16.23;;;10.73;;
14060;SDS011;7105;43.616;1.434;2022-12-18T04:15:59;14.90;;;9.60;;
14060;SDS011;7105;43.616;1.434;2022-12-18T04:18:24;14.03;;;9.87;;
14060;SDS011;7105;43.616;1.434;2022-12-18T04:20:50;15.67;;;10.47;;
14060;SDS011;7105;43.616;1.434;2022-12-18T04:23:16;16.17;;;10.60;;
14060;SDS011;7105;43.616;1.434;2022-12-18T04:25:41;15.03;;;10.50;;
14060;SDS011;7105;43.616;1.434;2022-12-18T04:28:07;16.50;;;10.43;;
14060;SDS011;7105;43.616;1.434;2022-12-18T04:30:33;14.70;;;11.07;;
14060;SDS011;7105;43.616;1.434;2022-12-18T04:32:59;15.30;;;10.37;;
14060;SDS011;7105;43.616;1.434;2022-12-18T04:35:24;14.17;;;10.20;;
14060;SDS011;7105;43.616;1.434;2022-12-18T04:37:50;16.13;;;9.97;;
14060;SDS011;7105;43.616;1.434;2022-12-18T04:40:15;14.53;;;10.33;;
14060;SDS011;7105;43.616;1.434;2022-12-18T04:42:41;14.97;;;10.50;;
14060;SDS011;7105;43.616;1.434;2022-12-18T04:45:07;14.03;;;9.53;;
14060;SDS011;7105;43.616;1.434;2022-12-18T04:47:33;12.67;;;9.43;;
14060;SDS011;7105;43.616;1.434;2022-12-18T04:49:59;11.70;;;8.47;;
14060;SDS011;7105;43.616;1.434;2022-12-18T04:52:24;13.60;;;9.27;;
14060;SDS011;7105;43.616;1.434;2022-12-18T04:54:50;13.67;;;8.87;;
14060;SDS011;7105;43.616;1.434;2022-12-18T04:57:16;14.83;;;10.23;;
14060;SDS011;7105;43.616;1.434;2022-12-18T04:59:43;14.87;;;10.00;;
14060;SDS011;7105;43.616;1.434;2022-12-18T05:02:09;15.40;;;10.27;;
14060;SDS011;7105;43.616;1.434;2022-12-18T05:04:34;18.57;;;10.57;;
14060;SDS011;7105;43.616;1.434;2022-12-18T05:07:00;16.63;;;11.07;;
14060;SDS011;7105;43.616;1.434;2022-12-18T05:09:26;19.13;;;11.27;;
14060;SDS011;7105;43.616;1.434;2022-12-18T05:11:51;17.77;;;11.70;;
14060;SDS011;7105;43.616;1.434;2022-12-18T05:14:17;19.30;;;12.13;;
14060;SDS011;7105;43.616;1.434;2022-12-18T05:16:43;20.60;;;12.73;;
14060;SDS011;7105;43.616;1.434;2022-12-18T05:19:08;19.50;;;12.53;;
14060;SDS011;7105;43.616;1.434;2022-12-18T05:21:34;21.50;;;13.30;;
14060;SDS011;7105;43.616;1.434;2022-12-18T05:24:00;20.40;;;12.47;;
14060;SDS011;7105;43.616;1.434;2022-12-18T05:26:25;21.80;;;13.20;;
14060;SDS011;7105;43.616;1.434;2022-12-18T05:28:51;26.23;;;14.37;;
14060;SDS011;7105;43.616;1.434;2022-12-18T05:31:17;20.07;;;11.73;;
14060;SDS011;7105;43.616;1.434;2022-12-18T05:33:42;21.97;;;13.63;;
14060;SDS011;7105;43.616;1.434;2022-12-18T05:36:08;18.63;;;12.37;;
14060;SDS011;7105;43.616;1.434;2022-12-18T05:38:36;22.87;;;13.17;;
14060;SDS011;7105;43.616;1.434;2022-12-18T05:41:03;20.80;;;12.47;;
14060;SDS011;7105;43.616;1.434;2022-12-18T05:43:29;24.23;;;13.23;;
14060;SDS011;7105;43.616;1.434;2022-12-18T05:45:55;22.10;;;12.33;;
14060;SDS011;7105;43.616;1.434;2022-12-18T05:48:21;21.83;;;12.70;;
14060;SDS011;7105;43.616;1.434;2022-12-18T05:50:48;22.60;;;13.23;;
14060;SDS011;7105;43.616;1.434;2022-12-18T05:53:15;20.00;;;12.37;;
14060;SDS011;7105;43.616;1.434;2022-12-18T05:55:44;18.27;;;11.37;;
14060;SDS011;7105;43.616;1.434;2022-12-18T05:58:11;19.60;;;11.20;;
14060;SDS011;7105;43.616;1.434;2022-12-18T06:00:40;18.70;;;11.13;;
14060;SDS011;7105;43.616;1.434;2022-12-18T06:03:08;20.10;;;10.90;;
14060;SDS011;7105;43.616;1.434;2022-12-18T06:05:42;17.93;;;11.27;;
14060;SDS011;7105;43.616;1.434;2022-12-18T06:08:09;17.60;;;11.00;;
14060;SDS011;7105;43.616;1.434;2022-12-18T06:10:36;17.43;;;11.00;;
14060;SDS011;7105;43.616;1.434;2022-12-18T06:13:02;20.00;;;11.43;;
14060;SDS011;7105;43.616;1.434;2022-12-18T06:15:28;16.27;;;10.73;;
14060;SDS011;7105;43.616;1.434;2022-12-18T06:17:54;17.97;;;11.37;;
14060;SDS011;7105;43.616;1.434;2022-12-18T06:20:20;17.83;;;11.53;;
14060;SDS011;7105;43.616;1.434;2022-12-18T06:22:46;19.40;;;13.47;;
14060;SDS011;7105;43.616;1.434;2022-12-18T06:25:11;21.23;;;14.20;;
14060;SDS011;7105;43.616;1.434;2022-12-18T06:27:37;21.87;;;13.70;;
14060;SDS011;7105;43.616;1.434;2022-12-18T06:30:03;18.27;;;12.80;;
14060;SDS011;7105;43.616;1.434;2022-12-18T06:32:29;20.93;;;12.97;;
14060;SDS011;7105;43.616;1.434;2022-12-18T06:34:55;18.67;;;11.73;;
14060;SDS011;7105;43.616;1.434;2022-12-18T06:37:21;17.07;;;11.20;;
14060;SDS011;7105;43.616;1.434;2022-12-18T06:39:50;17.53;;;11.77;;
14060;SDS011;7105;43.616;1.434;2022-12-18T06:42:17;18.63;;;10.80;;
14060;SDS011;7105;43.616;1.434;2022-12-18T06:44:42;20.40;;;11.37;;
14060;SDS011;7105;43.616;1.434;2022-12-18T06:47:08;21.83;;;12.13;;
14060;SDS011;7105;43.616;1.434;2022-12-18T06:49:34;32.03;;;15.13;;
14060;SDS011;7105;43.616;1.434;2022-12-18T06:52:00;25.83;;;13.23;;
14060;SDS011;7105;43.616;1.434;2022-12-18T06:54:25;26.50;;;14.17;;
14060;SDS011;7105;43.616;1.434;2022-12-18T06:56:51;25.17;;;14.23;;
14060;SDS011;7105;43.616;1.434;2022-12-18T06:59:16;26.63;;;15.27;;
14060;SDS011;7105;43.616;1.434;2022-12-18T07:01:42;32.37;;;16.00;;
14060;SDS011;7105;43.616;1.434;2022-12-18T07:04:08;18.20;;;12.00;;
14060;SDS011;7105;43.616;1.434;2022-12-18T07:06:34;20.13;;;11.03;;
14060;SDS011;7105;43.616;1.434;2022-12-18T07:08:59;19.97;;;12.10;;
14060;SDS011;7105;43.616;1.434;2022-12-18T07:11:25;21.87;;;13.23;;
14060;SDS011;7105;43.616;1.434;2022-12-18T07:13:51;20.80;;;12.47;;
14060;SDS011;7105;43.616;1.434;2022-12-18T07:16:18;21.63;;;13.33;;
14060;SDS011;7105;43.616;1.434;2022-12-18T07:18:45;26.87;;;17.67;;
14060;SDS011;7105;43.616;1.434;2022-12-18T07:21:15;27.40;;;16.63;;
14060;SDS011;7105;43.616;1.434;2022-12-18T07:23:43;27.67;;;15.40;;
14060;SDS011;7105;43.616;1.434;2022-12-18T07:26:11;28.90;;;17.73;;
14060;SDS011;7105;43.616;1.434;2022-12-18T07:28:38;28.23;;;16.27;;
14060;SDS011;7105;43.616;1.434;2022-12-18T07:31:06;25.60;;;16.13;;
14060;SDS011;7105;43.616;1.434;2022-12-18T07:33:33;26.23;;;16.83;;
14060;SDS011;7105;43.616;1.434;2022-12-18T07:35:59;27.93;;;17.30;;
14060;SDS011;7105;43.616;1.434;2022-12-18T07:38:26;27.90;;;17.60;;
14060;SDS011;7105;43.616;1.434;2022-12-18T07:40:52;24.70;;;16.27;;
14060;SDS011;7105;43.616;1.434;2022-12-18T07:43:17;23.73;;;14.77;;
14060;SDS011;7105;43.616;1.434;2022-12-18T07:45:43;23.17;;;15.60;;
14060;SDS011;7105;43.616;1.434;2022-12-18T07:48:09;22.77;;;14.17;;
14060;SDS011;7105;43.616;1.434;2022-12-18T07:50:35;25.27;;;16.10;;
14060;SDS011;7105;43.616;1.434;2022-12-18T07:53:00;26.27;;;15.47;;
14060;SDS011;7105;43.616;1.434;2022-12-18T07:55:32;25.77;;;15.53;;
14060;SDS011;7105;43.616;1.434;2022-12-18T07:58:00;26.27;;;16.00;;
14060;SDS011;7105;43.616;1.434;2022-12-18T08:00:27;30.50;;;17.47;;
14060;SDS011;7105;43.616;1.434;2022-12-18T08:02:53;30.23;;;16.97;;
14060;SDS011;7105;43.616;1.434;2022-12-18T08:05:18;28.63;;;17.47;;
14060;SDS011;7105;43.616;1.434;2022-12-18T08:07:45;28.90;;;16.70;;
14060;SDS011;7105;43.616;1.434;2022-12-18T08:10:11;23.27;;;14.20;;
14060;SDS011;7105;43.616;1.434;2022-12-18T08:12:37;25.73;;;16.33;;
14060;SDS011;7105;43.616;1.434;2022-12-18T08:15:03;24.83;;;16.10;;
14060;SDS011;7105;43.616;1.434;2022-12-18T08:17:29;25.87;;;17.03;;
14060;SDS011;7105;43.616;1.434;2022-12-18T08:19:55;22.10;;;14.50;;
14060;SDS011;7105;43.616;1.434;2022-12-18T08:22:21;22.77;;;14.20;;
14060;SDS011;7105;43.616;1.434;2022-12-18T08:24:46;21.33;;;15.13;;
14060;SDS011;7105;43.616;1.434;2022-12-18T08:27:12;20.17;;;13.80;;
14060;SDS011;7105;43.616;1.434;2022-12-18T08:29:38;23.23;;;13.67;;
14060;SDS011;7105;43.616;1.434;2022-12-18T08:32:03;19.63;;;13.60;;
14060;SDS011;7105;43.616;1.434;2022-12-18T08:34:29;19.57;;;13.90;;
14060;SDS011;7105;43.616;1.434;2022-12-18T08:36:55;17.97;;;12.27;;
14060;SDS011;7105;43.616;1.434;2022-12-18T08:39:20;17.83;;;12.87;;
14060;SDS011;7105;43.616;1.434;2022-12-18T08:41:46;20.43;;;13.10;;
14060;SDS011;7105;43.616;1.434;2022-12-18T08:44:32;16.47;;;11.80;;
14060;SDS011;7105;43.616;1.434;2022-12-18T08:47:03;16.30;;;11.70;;
14060;SDS011;7105;43.616;1.434;2022-12-18T08:49:32;17.20;;;11.97;;
14060;SDS011;7105;43.616;1.434;2022-12-18T08:51:59;17.90;;;14.07;;
14060;SDS011;7105;43.616;1.434;2022-12-18T08:54:26;13.73;;;11.63;;
14060;SDS011;7105;43.616;1.434;2022-12-18T08:56:52;15.97;;;12.80;;
14060;SDS011;7105;43.616;1.434;2022-12-18T08:59:18;18.20;;;14.63;;
14060;SDS011;7105;43.616;1.434;2022-12-18T09:01:44;19.93;;;14.83;;
14060;SDS011;7105;43.616;1.434;2022-12-18T09:04:11;19.00;;;13.60;;
14060;SDS011;7105;43.616;1.434;2022-12-18T09:06:37;18.43;;;13.77;;
14060;SDS011;7105;43.616;1.434;2022-12-18T09:09:03;18.13;;;14.40;;
14060;SDS011;7105;43.616;1.434;2022-12-18T09:11:30;19.20;;;14.67;;
14060;SDS011;7105;43.616;1.434;2022-12-18T09:13:57;19.10;;;13.97;;
14060;SDS011;7105;43.616;1.434;2022-12-18T09:16:25;20.77;;;14.63;;
14060;SDS011;7105;43.616;1.434;2022-12-18T09:18:53;15.90;;;13.13;;
14060;SDS011;7105;43.616;1.434;2022-12-18T09:21:24;14.07;;;10.10;;
14060;SDS011;7105;43.616;1.434;2022-12-18T09:23:52;14.43;;;10.63;;
14060;SDS011;7105;43.616;1.434;2022-12-18T09:26:19;12.23;;;8.17;;
14060;SDS011;7105;43.616;1.434;2022-12-18T09:28:46;11.30;;;7.90;;
14060;SDS011;7105;43.616;1.434;2022-12-18T09:31:12;11.53;;;8.50;;
14060;SDS011;7105;43.616;1.434;2022-12-18T09:33:38;9.97;;;7.47;;
14060;SDS011;7105;43.616;1.434;2022-12-18T09:36:05;9.10;;;6.77;;
14060;SDS011;7105;43.616;1.434;2022-12-18T09:38:33;10.77;;;7.70;;
14060;SDS011;7105;43.616;1.434;2022-12-18T09:44:28;9.73;;;6.60;;
14060;SDS011;7105;43.616;1.434;2022-12-18T09:49:42;9.40;;;5.70;;
14060;SDS011;7105;43.616;1.434;2022-12-18T09:54:58;8.97;;;6.80;;
14060;SDS011;7105;43.616;1.434;2022-12-18T09:57:29;9.27;;;6.57;;
14060;SDS011;7105;43.616;1.434;2022-12-18T09:59:59;8.30;;;6.53;;
14060;SDS011;7105;43.616;1.434;2022-12-18T10:02:52;7.80;;;5.93;;
14060;SDS011;7105;43.616;1.434;2022-12-18T10:05:48;7.20;;;5.17;;
14060;SDS011;7105;43.616;1.434;2022-12-18T10:14:04;8.53;;;5.63;;
14060;SDS011;7105;43.616;1.434;2022-12-18T10:16:43;6.37;;;5.03;;
14060;SDS011;7105;43.616;1.434;2022-12-18T10:24:33;8.20;;;5.00;;
14060;SDS011;7105;43.616;1.434;2022-12-18T10:27:15;7.03;;;5.27;;
14060;SDS011;7105;43.616;1.434;2022-12-18T10:29:44;7.00;;;5.10;;
14060;SDS011;7105;43.616;1.434;2022-12-18T10:32:16;6.47;;;4.90;;
14060;SDS011;7105;43.616;1.434;2022-12-18T10:34:48;6.47;;;4.50;;
14060;SDS011;7105;43.616;1.434;2022-12-18T10:37:16;5.30;;;4.43;;
14060;SDS011;7105;43.616;1.434;2022-12-18T10:39:45;7.53;;;5.00;;
14060;SDS011;7105;43.616;1.434;2022-12-18T10:42:21;7.17;;;4.70;;
14060;SDS011;7105;43.616;1.434;2022-12-18T10:44:47;6.43;;;4.63;;
14060;SDS011;7105;43.616;1.434;2022-12-18T10:47:28;5.90;;;4.67;;
14060;SDS011;7105;43.616;1.434;2022-12-18T10:49:54;7.37;;;5.20;;
14060;SDS011;7105;43.616;1.434;2022-12-18T10:52:21;5.67;;;4.77;;
14060;SDS011;7105;43.616;1.434;2022-12-18T10:54:58;6.37;;;4.67;;
14060;SDS011;7105;43.616;1.434;2022-12-18T10:57:32;5.93;;;4.67;;
14060;SDS011;7105;43.616;1.434;2022-12-18T11:00:22;8.77;;;4.50;;
14060;SDS011;7105;43.616;1.434;2022-12-18T11:02:49;5.50;;;4.47;;
14060;SDS011;7105;43.616;1.434;2022-12-18T11:05:35;7.10;;;4.73;;
14060;SDS011;7105;43.616;1.434;2022-12-18T11:08:02;7.47;;;5.00;;
14060;SDS011;7105;43.616;1.434;2022-12-18T11:10:38;5.23;;;4.20;;
14060;SDS011;7105;43.616;1.434;2022-12-18T11:13:38;5.93;;;4.70;;
14060;SDS011;7105;43.616;1.434;2022-12-18T11:15:58;5.27;;;4.10;;
14060;SDS011;7105;43.616;1.434;2022-12-18T11:18:32;5.63;;;4.67;;
14060;SDS011;7105;43.616;1.434;2022-12-18T11:23:26;5.57;;;4.80;;
14060;SDS011;7105;43.616;1.434;2022-12-18T11:25:54;6.00;;;4.17;;
14060;SDS011;7105;43.616;1.434;2022-12-18T11:31:18;6.60;;;4.60;;
14060;SDS011;7105;43.616;1.434;2022-12-18T11:34:04;5.63;;;4.07;;
14060;SDS011;7105;43.616;1.434;2022-12-18T11:36:43;6.33;;;4.10;;
14060;SDS011;7105;43.616;1.434;2022-12-18T11:39:13;5.83;;;4.90;;
14060;SDS011;7105;43.616;1.434;2022-12-18T11:41:43;5.60;;;4.50;;
14060;SDS011;7105;43.616;1.434;2022-12-18T11:44:54;8.00;;;5.90;;
14060;SDS011;7105;43.616;1.434;2022-12-18T11:53:13;6.83;;;4.33;;
14060;SDS011;7105;43.616;1.434;2022-12-18T12:01:36;5.97;;;4.67;;
14060;SDS011;7105;43.616;1.434;2022-12-18T12:07:38;7.03;;;4.13;;
14060;SDS011;7105;43.616;1.434;2022-12-18T12:10:37;6.03;;;4.10;;
14060;SDS011;7105;43.616;1.434;2022-12-18T12:13:23;7.50;;;4.70;;
14060;SDS011;7105;43.616;1.434;2022-12-18T12:16:45;5.67;;;3.80;;
14060;SDS011;7105;43.616;1.434;2022-12-18T12:21:43;6.13;;;4.60;;
14060;SDS011;7105;43.616;1.434;2022-12-18T12:24:32;5.50;;;4.00;;
14060;SDS011;7105;43.616;1.434;2022-12-18T12:30:07;7.80;;;4.97;;
14060;SDS011;7105;43.616;1.434;2022-12-18T12:40:34;6.73;;;4.97;;
14060;SDS011;7105;43.616;1.434;2022-12-18T12:43:15;6.50;;;5.07;;
14060;SDS011;7105;43.616;1.434;2022-12-18T12:48:20;7.30;;;4.33;;
14060;SDS011;7105;43.616;1.434;2022-12-18T12:50:56;5.33;;;4.17;;
14060;SDS011;7105;43.616;1.434;2022-12-18T12:53:26;6.47;;;4.83;;
14060;SDS011;7105;43.616;1.434;2022-12-18T12:55:57;6.23;;;4.33;;
14060;SDS011;7105;43.616;1.434;2022-12-18T13:01:13;5.77;;;4.63;;
14060;SDS011;7105;43.616;1.434;2022-12-18T13:09:23;6.37;;;4.07;;
14060;SDS011;7105;43.616;1.434;2022-12-18T13:11:49;5.90;;;4.53;;
14060;SDS011;7105;43.616;1.434;2022-12-18T13:19:48;6.57;;;4.33;;
14060;SDS011;7105;43.616;1.434;2022-12-18T13:22:25;6.93;;;4.97;;
14060;SDS011;7105;43.616;1.434;2022-12-18T13:24:56;9.00;;;4.97;;
14060;SDS011;7105;43.616;1.434;2022-12-18T13:36:41;8.30;;;5.83;;
14060;SDS011;7105;43.616;1.434;2022-12-18T13:41:53;7.63;;;5.93;;
14060;SDS011;7105;43.616;1.434;2022-12-18T13:44:59;8.33;;;5.53;;
14060;SDS011;7105;43.616;1.434;2022-12-18T13:47:26;7.10;;;5.30;;
14060;SDS011;7105;43.616;1.434;2022-12-18T13:50:09;5.90;;;4.67;;
14060;SDS011;7105;43.616;1.434;2022-12-18T13:52:44;6.70;;;5.00;;
14060;SDS011;7105;43.616;1.434;2022-12-18T13:55:14;6.07;;;4.77;;
14060;SDS011;7105;43.616;1.434;2022-12-18T13:57:43;7.43;;;4.90;;
14060;SDS011;7105;43.616;1.434;2022-12-18T14:02:49;7.37;;;4.87;;
14060;SDS011;7105;43.616;1.434;2022-12-18T14:05:25;7.30;;;4.90;;
14060;SDS011;7105;43.616;1.434;2022-12-18T14:07:53;7.80;;;5.67;;
14060;SDS011;7105;43.616;1.434;2022-12-18T14:10:24;8.23;;;5.20;;
14060;SDS011;7105;43.616;1.434;2022-12-18T14:12:50;7.93;;;5.77;;
14060;SDS011;7105;43.616;1.434;2022-12-18T14:17:54;6.80;;;5.53;;
14060;SDS011;7105;43.616;1.434;2022-12-18T14:20:20;7.70;;;5.20;;
14060;SDS011;7105;43.616;1.434;2022-12-18T14:22:48;6.90;;;4.63;;
14060;SDS011;7105;43.616;1.434;2022-12-18T14:27:46;6.47;;;5.20;;
14060;SDS011;7105;43.616;1.434;2022-12-18T14:33:08;6.33;;;5.20;;
14060;SDS011;7105;43.616;1.434;2022-12-18T14:35:58;5.77;;;4.50;;
14060;SDS011;7105;43.616;1.434;2022-12-18T14:38:27;6.63;;;5.00;;
14060;SDS011;7105;43.616;1.434;2022-12-18T14:41:04;7.77;;;5.07;;
14060;SDS011;7105;43.616;1.434;2022-12-18T14:43:32;8.23;;;4.83;;
14060;SDS011;7105;43.616;1.434;2022-12-18T14:46:00;8.60;;;5.10;;
14060;SDS011;7105;43.616;1.434;2022-12-18T14:48:40;5.20;;;4.70;;
14060;SDS011;7105;43.616;1.434;2022-12-18T14:53:46;8.07;;;5.27;;
14060;SDS011;7105;43.616;1.434;2022-12-18T14:56:35;5.47;;;4.83;;
14060;SDS011;7105;43.616;1.434;2022-12-18T14:59:03;5.83;;;5.20;;
14060;SDS011;7105;43.616;1.434;2022-12-18T15:01:37;6.30;;;4.97;;
14060;SDS011;7105;43.616;1.434;2022-12-18T15:04:30;8.37;;;5.20;;
14060;SDS011;7105;43.616;1.434;2022-12-18T15:09:42;8.00;;;5.10;;
14060;SDS011;7105;43.616;1.434;2022-12-18T15:12:32;6.13;;;4.80;;
14060;SDS011;7105;43.616;1.434;2022-12-18T15:15:01;7.40;;;4.60;;
14060;SDS011;7105;43.616;1.434;2022-12-18T15:17:28;5.93;;;5.33;;
14060;SDS011;7105;43.616;1.434;2022-12-18T15:20:08;6.63;;;4.73;;
14060;SDS011;7105;43.616;1.434;2022-12-18T15:22:35;7.57;;;5.27;;
14060;SDS011;7105;43.616;1.434;2022-12-18T15:25:02;5.47;;;4.93;;
14060;SDS011;7105;43.616;1.434;2022-12-18T15:27:47;6.73;;;5.07;;
14060;SDS011;7105;43.616;1.434;2022-12-18T15:30:17;5.50;;;4.70;;
14060;SDS011;7105;43.616;1.434;2022-12-18T15:32:45;7.80;;;5.03;;
14060;SDS011;7105;43.616;1.434;2022-12-18T15:35:21;8.47;;;5.73;;
14060;SDS011;7105;43.616;1.434;2022-12-18T15:37:50;7.90;;;5.13;;
14060;SDS011;7105;43.616;1.434;2022-12-18T15:40:26;7.47;;;5.37;;
14060;SDS011;7105;43.616;1.434;2022-12-18T15:42:52;7.13;;;5.97;;
14060;SDS011;7105;43.616;1.434;2022-12-18T15:45:37;8.90;;;5.80;;
14060;SDS011;7105;43.616;1.434;2022-12-18T15:48:14;8.73;;;5.70;;
14060;SDS011;7105;43.616;1.434;2022-12-18T15:50:45;9.30;;;6.00;;
14060;SDS011;7105;43.616;1.434;2022-12-18T15:53:10;7.30;;;5.50;;
14060;SDS011;7105;43.616;1.434;2022-12-18T15:55:36;8.80;;;5.93;;
14060;SDS011;7105;43.616;1.434;2022-12-18T15:58:21;8.07;;;5.90;;
14060;SDS011;7105;43.616;1.434;2022-12-18T16:00:47;10.93;;;6.23;;
14060;SDS011;7105;43.616;1.434;2022-12-18T16:03:12;9.40;;;6.20;;
14060;SDS011;7105;43.616;1.434;2022-12-18T16:05:38;8.40;;;6.00;;
14060;SDS011;7105;43.616;1.434;2022-12-18T16:08:04;8.83;;;6.70;;
14060;SDS011;7105;43.616;1.434;2022-12-18T16:10:29;11.17;;;6.83;;
14060;SDS011;7105;43.616;1.434;2022-12-18T16:12:55;12.47;;;7.37;;
14060;SDS011;7105;43.616;1.434;2022-12-18T16:15:21;9.47;;;7.00;;
14060;SDS011;7105;43.616;1.434;2022-12-18T16:17:47;10.23;;;6.83;;
14060;SDS011;7105;43.616;1.434;2022-12-18T16:20:14;9.63;;;7.00;;
14060;SDS011;7105;43.616;1.434;2022-12-18T16:22:41;10.97;;;6.83;;
14060;SDS011;7105;43.616;1.434;2022-12-18T16:25:20;11.00;;;6.77;;
14060;SDS011;7105;43.616;1.434;2022-12-18T16:27:50;8.47;;;7.00;;
14060;SDS011;7105;43.616;1.434;2022-12-18T16:30:18;11.93;;;7.27;;
14060;SDS011;7105;43.616;1.434;2022-12-18T16:32:46;12.93;;;7.87;;
14060;SDS011;7105;43.616;1.434;2022-12-18T16:35:12;8.70;;;6.70;;
14060;SDS011;7105;43.616;1.434;2022-12-18T16:37:39;12.27;;;6.70;;
14060;SDS011;7105;43.616;1.434;2022-12-18T16:40:08;11.27;;;7.33;;
14060;SDS011;7105;43.616;1.434;2022-12-18T16:42:36;11.73;;;7.40;;
14060;SDS011;7105;43.616;1.434;2022-12-18T16:45:03;10.83;;;7.40;;
14060;SDS011;7105;43.616;1.434;2022-12-18T16:47:30;8.43;;;7.53;;
14060;SDS011;7105;43.616;1.434;2022-12-18T16:49:55;10.67;;;6.80;;
14060;SDS011;7105;43.616;1.434;2022-12-18T16:52:22;10.10;;;6.70;;
14060;SDS011;7105;43.616;1.434;2022-12-18T16:54:48;12.23;;;7.60;;
14060;SDS011;7105;43.616;1.434;2022-12-18T16:57:15;13.77;;;7.60;;
14060;SDS011;7105;43.616;1.434;2022-12-18T16:59:42;13.00;;;8.43;;
14060;SDS011;7105;43.616;1.434;2022-12-18T17:02:12;15.13;;;7.50;;
14060;SDS011;7105;43.616;1.434;2022-12-18T17:04:39;14.07;;;7.03;;
14060;SDS011;7105;43.616;1.434;2022-12-18T17:07:06;14.07;;;7.63;;
14060;SDS011;7105;43.616;1.434;2022-12-18T17:09:32;15.77;;;8.37;;
14060;SDS011;7105;43.616;1.434;2022-12-18T17:11:58;9.33;;;7.00;;